Weather at Berwick Airport [CLOSED]

Public forecast

Using degrees Celsius for public forecast. Weather courtesy of forecast.io.

Closest aviation weather report (METAR) to Berwick Airport

Closest report is Melbourne International Airport, 32.1 nm (59.4 km) NW.

2024/05/19 09:00 (retrieved 21 minutes ago)

YMML 190900Z AUTO 25004KT 9999 // BKN034 OVC043 12/09 Q1024

Closest aviation forecast (TAF) to Berwick Airport

Closest forecast is Melbourne International Airport, 32.1 nm (59.4 km) NW.

2024/05/19 09:58 (retrieved 0 seconds ago)

TAF YMML 190825Z 1909/2012 26010KT 9999 -SHRA SCT015 BKN040 FM191500 24010KT 9999 -SHRA BKN015 BECMG 2000/2002 19012KT 9999 -SHRA SCT015 BKN020 FM200600 20010KT 9999 NSW SCT020 BKN030 FM201000 20008KT 9999 BKN020 INTER 1912/1917 3000 SHRA BKN015 TEMPO 1917/2000 2000 DZ SCT005 BKN008 INTER 2000/2006 4000 SHRA BKN012